Terminal Aerodrome Forecast
Issued by NWS

Home | Current Version | Previous Version | Text Only | Print | Product List | Glossary On
Versions: 1 2 3 4 5 6 7 8 9 10 11 12
000
FTUS44 KEPZ 282300
TAFLRU
TAF
KLRU 282320Z 2900/2924 26005KT P6SM SCT250
     FM290700 36004KT P6SM SCT150 BKN250
     FM291700 09011KT P6SM SCT050 OVC200
     FM292000 10012KT P6SM VCSH BKN050 OVC100=

USA.gov is the U.S. government's official web portal to all federal, state and local government web resources and services.